• Join FlightAware (Why Join?)
  • Login
  • US Flag 
08:28AM EDT


 

Airport Tracker/Info


-or-


 

Live Flight TrackerFlight Track Log ✈ N830QS ✈ 23-Jan-2014 ✈ KEGE - KCHA

Flight Track Log - Related Links

Times and Time Zones

All times are in EST time to prevent confusion due to time zone crossing. See the N830QS flight status page for this flight to view local times or setup timezone preferences in your user account.

Time Position Orientation Groundspeed Altitude Reporting Facility
EST Latitude Longitude Course Direction KTS MPH feet Rate Location/Type
10:02AM 39.6389 -106.9369 110° East 184 212 7,800  Level Denver Center
10:03AM 39.6017 -107.0078 236° Southwest 208 239 12,800 3,420 Climbing Denver Center
10:04AM 39.6589 -107.0414 336° Northwest 254 292 15,500 2,100 Climbing Denver Center
10:05AM 39.6964 -106.9372 65° Northeast 329 379 17,600 2,340 Climbing Denver Center
10:06AM 39.7056 -106.8081 85° East 352 405 20,400 2,640 Climbing Denver Center
10:07AM 39.9561 -106.2214 110° East  Level FlightAware Approximate
10:07AM 39.7069 -106.6789 89° East 354 407 23,100  Level Denver Center
10:08AM 39.7069 -106.5406 90° East 376 433 24,700 1,560 Climbing Denver Center
10:09AM 39.7067 -106.3797 90° East 399 459 26,400 1,320 Climbing Denver Center
10:10AM 39.7067 -106.2614 90° East 408 470 27,500 1,380 Climbing Denver Center
10:11AM 39.7075 -106.0836 90° East 410 472 29,300 1,440 Climbing Denver Center
10:12AM 39.7064 -105.9647 91° East 412 474 30,500 1,440 Climbing Denver Center
10:14AM 39.7042 -105.7867 91° East 411 473 32,300 1,560 Climbing Denver Center
10:15AM 39.7025 -105.6361 91° East 416 479 33,800 1,500 Climbing Denver Center
10:16AM 39.7006 -105.4581 91° East 414 476 35,400 1,260 Climbing Denver Center
10:17AM 39.7000 -105.3042 90° East 424 488 36,400 900 Climbing Denver Center
10:18AM 39.6978 -105.1483 91° East 430 495 37,300 840 Climbing Denver Center
10:19AM 39.6950 -104.9939 91° East 429 494 38,200 840 Climbing Denver Center
10:20AM 39.6922 -104.8353 91° East 435 501 39,100 840 Climbing Denver Center
10:21AM 39.6897 -104.6775 91° East 428 493 40,000 720 Climbing Denver Center
10:22AM 39.6803 -104.5192 94° East 432 497 40,600 480 Climbing Denver Center
10:23AM 39.6661 -104.3608 97° East 438 504 41,000 180 Climbing Denver Center
10:24AM 39.6508 -104.2022 97° East 441 507 41,000  Level Denver Center
10:25AM 39.6350 -104.0383 97° East 455 524 41,000  Level Denver Center
10:26AM 39.6194 -103.8703 97° East 468 539 41,000  Level Denver Center
10:27AM 39.5994 -103.6714 97° East 465 535 41,000  Level Denver Center
10:28AM 39.5836 -103.5022 97° East 472 543 41,000  Level Denver Center
10:29AM 39.5664 -103.3347 98° East 471 542 41,000  Level Denver Center
10:30AM 39.5489 -103.1672 98° East 471 542 41,000  Level Denver Center
10:31AM 39.5319 -102.9978 97° East 474 545 41,000  Level Denver Center
10:32AM 39.5131 -102.8300 98° East 472 543 41,000  Level Denver Center
10:33AM 39.4917 -102.6283 98° East 473 544 41,000  Level Denver Center
10:34AM 39.4708 -102.4261 98° East 472 543 41,000  Level Denver Center
10:35AM 39.4544 -102.2758 98° East 472 543 41,000  Level Denver Center
10:36AM 39.4328 -102.0881 98° East 473 544 41,000  Level Denver Center
10:37AM 39.4147 -101.9267 98° East 475 547 41,000  Level Denver Center
10:38AM 39.3931 -101.7397 98° East 473 544 41,000  Level Denver Center
10:39AM 39.3778 -101.5789 97° East 473 544 41,000  Level Denver Center
10:40AM 39.3628 -101.3903 96° East 473 544 41,000  Level Denver Center
10:42AM 39.3486 -101.2297 96° East 472 543 41,000  Level Denver Center
10:43AM 39.3322 -101.0406 96° East 475 547 41,000  Level Denver Center
10:44AM 39.3186 -100.8781 96° East 476 548 41,000  Level Denver Center
10:45AM 39.3008 -100.6883 97° East 477 549 41,000  Level Denver Center
10:46AM 39.2869 -100.5264 96° East 476 548 41,000  Level Denver Center
10:47AM 39.2686 -100.3372 97° East 476 548 41,000  Level Denver Center
10:48AM 39.2528 -100.1742 97° East 479 551 41,000  Level Denver Center
10:49AM 39.2300 -99.9836 99° East 480 552 41,000  Level Denver Center
10:50AM 39.2089 -99.8056 99° East 483 556 41,000  Level Denver Center
10:51AM 39.1883 -99.6414 99° East 483 556 41,000  Level Denver Center
10:52AM 39.1686 -99.4781 99° East 483 556 41,000  Level Denver Center
10:53AM 39.1414 -99.2589 99° East 484 557 41,000  Level Denver Center
10:54AM 39.1228 -99.1053 99° East 486 559 41,000  Level Kansas City Center
10:55AM 39.0947 -98.9419 102° East 486 559 41,000  Level Kansas City Center
10:56AM 39.0647 -98.7647 102° East 487 560 41,000  Level Kansas City Center
10:57AM 39.0367 -98.5889 102° East 483 556 41,000  Level Kansas City Center
10:58AM 39.0067 -98.4125 102° East 485 558 41,000  Level Kansas City Center
10:59AM 38.9764 -98.2367 102° East 484 557 41,000  Level Kansas City Center
11:00AM 38.9458 -98.0586 102° East 487 560 41,000  Level Kansas City Center
11:01AM 38.9150 -97.8811 103° East 490 564 41,000  Level Kansas City Center
11:02AM 38.8878 -97.7256 103° East 489 563 41,000  Level Kansas City Center
11:03AM 38.8547 -97.5350 103° East 489 563 41,000  Level Kansas City Center
11:04AM 38.8233 -97.3625 103° East 490 564 41,000  Level Kansas City Center
11:05AM 38.7919 -97.1856 103° East 490 564 41,000  Level Kansas City Center
11:06AM 38.7597 -97.0094 103° East 488 562 41,000  Level Kansas City Center
11:07AM 38.7261 -96.8314 104° East 495 570 41,000  Level Kansas City Center
11:08AM 38.6961 -96.6639 103° East 496 571 41,000  Level Kansas City Center
11:09AM 38.6647 -96.4994 104° East 498 573 41,000  Level Kansas City Center
11:10AM 38.6292 -96.3069 103° East 500 575 41,000  Level Kansas City Center
11:12AM 38.5981 -96.1436 104° East 497 572 41,000  Level Kansas City Center
11:13AM 38.5619 -95.9506 103° East 500 575 41,000  Level Kansas City Center
11:14AM 38.5297 -95.7856 104° East 502 578 41,000  Level Kansas City Center
11:15AM 38.4931 -95.5919 104° East 503 579 41,000  Level Kansas City Center
11:16AM 38.4608 -95.4269 104° East 502 578 41,000  Level Kansas City Center
11:17AM 38.4233 -95.2372 104° East 500 575 41,000  Level Kansas City Center
11:18AM 38.3906 -95.0697 104° East 506 582 41,000  Level Kansas City Center
11:19AM 38.3511 -94.8747 104° East 510 587 41,000  Level Kansas City Center
11:20AM 38.3167 -94.7100 105° East 507 583 41,000  Level Kansas City Center
11:21AM 38.2767 -94.5169 105° East 507 583 41,000  Level Kansas City Center
11:22AM 38.2533 -94.3475 100° East 506 582 41,000  Level Kansas City Center
11:23AM 38.2294 -94.1467 99° East 510 587 41,000  Level Kansas City Center
11:24AM 38.2083 -93.9919 100° East 511 588 41,000  Level Kansas City Center
11:25AM 38.1819 -93.7753 99° East 513 590 41,000  Level Kansas City Center
11:26AM 38.1578 -93.5953 100° East 514 592 41,000  Level Kansas City Center
11:27AM 38.1347 -93.4136 99° East 517 595 41,000  Level Kansas City Center
11:28AM 38.1119 -93.2325 99° East 518 596 41,000  Level Kansas City Center
11:29AM 38.0892 -93.0503 99° East 519 597 41,000  Level Kansas City Center
11:30AM 38.0644 -92.8692 100° East 519 597 41,000  Level Kansas City Center
11:31AM 38.0381 -92.6833 100° East 520 598 41,000  Level Kansas City Center
11:32AM 38.0128 -92.5033 100° East 520 598 41,000  Level Kansas City Center
11:33AM 37.9825 -92.2861 100° East 523 602 41,000  Level Kansas City Center
11:34AM 37.9572 -92.1078 100° East 521 600 41,000  Level Kansas City Center
11:35AM 37.9342 -91.9467 100° East 517 595 41,000  Level Kansas City Center
11:36AM 37.9028 -91.7303 100° East 518 596 41,000  Level Kansas City Center
11:37AM 37.8772 -91.5492 100° East 520 598 41,000  Level Kansas City Center
11:38AM 37.8503 -91.3686 101° East 520 598 41,000  Level Kansas City Center
11:39AM 37.8225 -91.1872 101° East 521 600 41,000  Level Kansas City Center
11:40AM 37.7919 -90.9981 101° East 524 603 41,000  Level Kansas City Center
11:41AM 37.7653 -90.8178 101° East 524 603 41,000  Level Kansas City Center
11:43AM 37.7372 -90.6394 101° East 523 602 41,000  Level Kansas City Center
11:44AM 37.7086 -90.4586 101° East 527 606 41,000  Level Kansas City Center
11:45AM 37.6714 -90.2456 102° East 523 602 41,000  Level Kansas City Center
11:46AM 37.6097 -90.0836 116° Southeast 517 595 41,000  Level Kansas City Center
11:47AM 37.5450 -89.9242 117° Southeast 516 594 41,000  Level Kansas City Center
11:48AM 37.4789 -89.7636 117° Southeast 515 593 41,000  Level Kansas City Center
11:49AM 37.4128 -89.6050 118° Southeast 513 590 41,000  Level Kansas City Center
11:50AM 37.3461 -89.4478 118° Southeast 511 588 41,000  Level Kansas City Center
11:50AM 37.2931 -89.3181 117° Southeast 512 589 41,000  Level Memphis Center
11:51AM 37.2264 -89.1600 118° Southeast 510 587 41,000  Level Memphis Center
11:53AM 37.1592 -89.0025 118° Southeast 510 587 41,000  Level Memphis Center
11:54AM 37.0783 -88.8131 118° Southeast 510 587 41,000  Level Memphis Center
11:55AM 37.0106 -88.6569 118° Southeast 509 586 41,000  Level Memphis Center
11:56AM 36.9444 -88.5019 118° Southeast 505 581 41,000  Level Memphis Center
11:57AM 36.8775 -88.3461 118° Southeast 505 581 41,000  Level Memphis Center
11:58AM 36.8108 -88.1933 119° Southeast 503 579 41,000  Level Memphis Center
11:59AM 36.7414 -88.0364 119° Southeast 501 577 41,000  Level Memphis Center
12:00PM 36.6631 -87.8569 119° Southeast 501 577 41,000 -120 Level Memphis Center
12:01PM 36.5956 -87.7044 119° Southeast 501 577 40,800 -780 Descending Memphis Center
12:02PM 36.5258 -87.5464 119° Southeast 512 589 39,500 -1,020 Descending Memphis Center
12:03PM 36.4539 -87.3853 119° Southeast 525 604 38,700 -840 Descending Memphis Center
12:04PM 36.3850 -87.2328 119° Southeast 510 587 37,800 -780 Descending Memphis Center
12:05PM 36.3178 -87.0836 119° Southeast 498 573 37,100 -840 Descending Memphis Center
12:06PM 36.2383 -86.9064 119° Southeast 510 587 36,100 -900 Descending Memphis Center
12:07PM 36.1664 -86.7514 120° Southeast 522 601 35,300 -540 Descending Memphis Center
12:08PM 36.0808 -86.6114 127° Southeast 507 583 35,000 -180 Descending Memphis Center
12:09PM 35.9872 -86.4864 133° Southeast 493 567 35,000 -480 Level Memphis Center
12:10PM 35.8908 -86.3594 133° Southeast 499 574 34,100 -1,440 Descending Memphis Center
12:11PM 35.7822 -86.2167 133° Southeast 488 562 32,100 -1,500 Descending Memphis Center
12:12PM 35.6894 -86.0953 133° Southeast 483 556 31,000 -540 Descending Memphis Center
12:13PM 35.5969 -85.9744 133° Southeast 492 566 31,000 -240 Level Memphis Center
12:14PM 35.5006 -85.8478 133° Southeast 503 579 30,600 -1,260 Descending Memphis Center
12:15PM 35.4094 -85.7292 133° Southeast 490 564 28,400 -2,940 Descending Memphis Center
12:16PM 35.3250 -85.6197 133° Southeast 457 526 24,600 -4,200 Descending Memphis Center
12:17PM 35.2236 -85.4989 136° Southeast 431 496 19,800 -4,140 Descending Memphis Center
12:18PM 35.1306 -85.4217 146° Southeast 387 445 16,000 -3,660 Descending Memphis Center
12:19PM 35.0539 -85.3569 145° Southeast 369 425 12,200 -3,780 Descending Memphis Center
12:20PM 34.9769 -85.3067 152° Southeast 325 374 8,200 -3,600 Descending Memphis Center
12:22PM 34.9033 -85.2756 161° South 295 339 4,800 -2,880 Descending Memphis Center
12:23PM 34.9172 -85.2031 77° East 262 302 2,300 -1,380 Descending Memphis Center
12:24PM 34.9619 -85.2203 342° North 200 230 2,000 -480 Descending Memphis Center
12:25PM 34.9972 -85.2222 357° North 159 183 1,400 -540 Descending Memphis Center
12:26PM 35.0289 -85.2119 15° North 134 154 1,000 -420 Descending Memphis Center